sensor_id;sensor_type;location;lat;lon;timestamp;P1;durP1;ratioP1;P2;durP2;ratioP2
63114;SDS011;49208;50.874;6.466;2024-02-21T10:45:13;8.98;;;3.40;;
63114;SDS011;49208;50.874;6.466;2024-02-21T10:47:39;7.07;;;2.63;;
63114;SDS011;49208;50.874;6.466;2024-02-21T10:50:08;5.35;;;3.03;;
63114;SDS011;49208;50.874;6.466;2024-02-21T10:52:51;7.57;;;2.90;;
63114;SDS011;49208;50.874;6.466;2024-02-21T10:55:31;9.93;;;3.42;;
63114;SDS011;49208;50.874;6.466;2024-02-21T10:58:04;7.00;;;2.70;;
63114;SDS011;49208;50.874;6.466;2024-02-21T11:00:30;4.75;;;2.72;;
63114;SDS011;49208;50.874;6.466;2024-02-21T11:02:56;7.75;;;3.13;;
63114;SDS011;49208;50.874;6.466;2024-02-21T11:05:24;7.45;;;2.60;;
63114;SDS011;49208;50.874;6.466;2024-02-21T11:07:49;6.05;;;2.50;;
63114;SDS011;49208;50.874;6.466;2024-02-21T11:10:23;6.82;;;2.50;;
63114;SDS011;49208;50.874;6.466;2024-02-21T11:12:52;5.93;;;2.72;;
63114;SDS011;49208;50.874;6.466;2024-02-21T11:15:18;6.88;;;2.95;;
63114;SDS011;49208;50.874;6.466;2024-02-21T11:17:53;5.95;;;2.38;;
63114;SDS011;49208;50.874;6.466;2024-02-21T11:20:20;5.75;;;2.40;;
63114;SDS011;49208;50.874;6.466;2024-02-21T11:22:46;4.45;;;2.63;;
63114;SDS011;49208;50.874;6.466;2024-02-21T11:25:13;7.07;;;2.80;;
63114;SDS011;49208;50.874;6.466;2024-02-21T11:27:46;6.00;;;2.63;;
63114;SDS011;49208;50.874;6.466;2024-02-21T11:30:12;5.32;;;2.50;;
63114;SDS011;49208;50.874;6.466;2024-02-21T11:32:39;7.63;;;2.85;;
63114;SDS011;49208;50.874;6.466;2024-02-21T11:35:05;7.35;;;3.53;;
63114;SDS011;49208;50.874;6.466;2024-02-21T11:37:32;9.38;;;3.03;;
63114;SDS011;49208;50.874;6.466;2024-02-21T11:39:58;6.85;;;3.58;;
63114;SDS011;49208;50.874;6.466;2024-02-21T11:42:28;7.05;;;3.25;;
63114;SDS011;49208;50.874;6.466;2024-02-21T11:44:54;8.95;;;3.95;;
63114;SDS011;49208;50.874;6.466;2024-02-21T11:47:22;6.15;;;3.03;;
63114;SDS011;49208;50.874;6.466;2024-02-21T11:49:47;6.40;;;3.42;;
63114;SDS011;49208;50.874;6.466;2024-02-21T11:54:40;9.43;;;4.35;;
63114;SDS011;49208;50.874;6.466;2024-02-21T11:57:06;5.20;;;2.97;;
63114;SDS011;49208;50.874;6.466;2024-02-21T11:59:32;6.63;;;3.00;;
63114;SDS011;49208;50.874;6.466;2024-02-21T12:01:59;7.70;;;3.20;;
63114;SDS011;49208;50.874;6.466;2024-02-21T12:04:25;7.38;;;2.78;;
63114;SDS011;49208;50.874;6.466;2024-02-21T12:06:52;4.82;;;2.85;;
63114;SDS011;49208;50.874;6.466;2024-02-21T12:09:18;6.88;;;3.08;;
63114;SDS011;49208;50.874;6.466;2024-02-21T12:11:44;5.75;;;2.83;;
63114;SDS011;49208;50.874;6.466;2024-02-21T12:14:11;6.03;;;3.05;;
63114;SDS011;49208;50.874;6.466;2024-02-21T12:16:41;8.32;;;2.92;;
63114;SDS011;49208;50.874;6.466;2024-02-21T12:19:07;13.73;;;3.67;;
63114;SDS011;49208;50.874;6.466;2024-02-21T12:21:34;8.18;;;2.78;;
63114;SDS011;49208;50.874;6.466;2024-02-21T12:26:56;7.72;;;2.92;;
63114;SDS011;49208;50.874;6.466;2024-02-21T12:29:23;7.93;;;2.95;;
63114;SDS011;49208;50.874;6.466;2024-02-21T12:31:49;5.53;;;3.10;;
63114;SDS011;49208;50.874;6.466;2024-02-21T12:34:15;9.00;;;3.30;;
63114;SDS011;49208;50.874;6.466;2024-02-21T12:36:42;8.07;;;3.10;;
63114;SDS011;49208;50.874;6.466;2024-02-21T12:39:09;11.18;;;3.17;;
63114;SDS011;49208;50.874;6.466;2024-02-21T12:41:37;7.97;;;3.95;;
63114;SDS011;49208;50.874;6.466;2024-02-21T12:44:06;6.93;;;3.20;;
63114;SDS011;49208;50.874;6.466;2024-02-21T12:46:35;5.68;;;3.00;;
63114;SDS011;49208;50.874;6.466;2024-02-21T12:49:04;5.65;;;2.53;;
63114;SDS011;49208;50.874;6.466;2024-02-21T12:51:30;6.10;;;2.88;;
63114;SDS011;49208;50.874;6.466;2024-02-21T12:53:56;7.38;;;2.85;;
63114;SDS011;49208;50.874;6.466;2024-02-21T12:56:22;6.60;;;2.67;;
63114;SDS011;49208;50.874;6.466;2024-02-21T12:58:47;7.00;;;3.30;;
63114;SDS011;49208;50.874;6.466;2024-02-21T13:01:12;6.57;;;2.80;;
63114;SDS011;49208;50.874;6.466;2024-02-21T13:03:38;6.03;;;2.67;;
63114;SDS011;49208;50.874;6.466;2024-02-21T13:06:04;8.98;;;2.83;;
63114;SDS011;49208;50.874;6.466;2024-02-21T13:08:30;11.53;;;2.93;;
63114;SDS011;49208;50.874;6.466;2024-02-21T13:10:55;9.57;;;3.30;;
63114;SDS011;49208;50.874;6.466;2024-02-21T13:13:20;6.10;;;2.88;;
63114;SDS011;49208;50.874;6.466;2024-02-21T13:15:46;6.38;;;2.80;;
63114;SDS011;49208;50.874;6.466;2024-02-21T13:18:11;6.13;;;3.03;;
63114;SDS011;49208;50.874;6.466;2024-02-21T13:20:37;6.03;;;2.75;;
63114;SDS011;49208;50.874;6.466;2024-02-21T13:23:03;6.63;;;3.20;;
63114;SDS011;49208;50.874;6.466;2024-02-21T13:25:28;6.38;;;3.28;;
63114;SDS011;49208;50.874;6.466;2024-02-21T13:27:54;7.00;;;3.00;;
63114;SDS011;49208;50.874;6.466;2024-02-21T13:30:21;9.18;;;3.03;;
63114;SDS011;49208;50.874;6.466;2024-02-21T13:32:47;9.07;;;3.47;;
63114;SDS011;49208;50.874;6.466;2024-02-21T13:35:12;7.85;;;3.22;;
63114;SDS011;49208;50.874;6.466;2024-02-21T13:37:38;5.95;;;2.90;;
63114;SDS011;49208;50.874;6.466;2024-02-21T13:40:05;6.47;;;3.42;;
63114;SDS011;49208;50.874;6.466;2024-02-21T13:42:31;7.80;;;3.13;;
63114;SDS011;49208;50.874;6.466;2024-02-21T13:44:58;6.97;;;3.10;;
63114;SDS011;49208;50.874;6.466;2024-02-21T13:47:23;5.95;;;2.85;;
63114;SDS011;49208;50.874;6.466;2024-02-21T13:49:48;7.53;;;3.00;;
63114;SDS011;49208;50.874;6.466;2024-02-21T13:52:14;6.07;;;3.28;;
63114;SDS011;49208;50.874;6.466;2024-02-21T13:54:39;8.55;;;3.60;;
63114;SDS011;49208;50.874;6.466;2024-02-21T13:57:05;7.35;;;3.58;;
63114;SDS011;49208;50.874;6.466;2024-02-21T13:59:30;6.90;;;2.83;;
63114;SDS011;49208;50.874;6.466;2024-02-21T14:01:58;6.05;;;2.97;;
63114;SDS011;49208;50.874;6.466;2024-02-21T14:04:24;8.02;;;3.22;;
63114;SDS011;49208;50.874;6.466;2024-02-21T14:06:49;5.93;;;3.10;;
63114;SDS011;49208;50.874;6.466;2024-02-21T14:09:14;8.30;;;4.65;;
63114;SDS011;49208;50.874;6.466;2024-02-21T14:11:40;8.00;;;2.47;;
63114;SDS011;49208;50.874;6.466;2024-02-21T14:14:06;6.53;;;1.98;;
63114;SDS011;49208;50.874;6.466;2024-02-21T14:16:32;8.10;;;2.92;;
63114;SDS011;49208;50.874;6.466;2024-02-21T14:18:58;7.28;;;2.70;;
63114;SDS011;49208;50.874;6.466;2024-02-21T14:21:23;9.75;;;3.47;;
63114;SDS011;49208;50.874;6.466;2024-02-21T14:23:49;8.05;;;3.15;;
63114;SDS011;49208;50.874;6.466;2024-02-21T14:26:14;6.90;;;3.10;;
63114;SDS011;49208;50.874;6.466;2024-02-21T14:28:40;6.13;;;2.67;;
63114;SDS011;49208;50.874;6.466;2024-02-21T14:31:06;5.72;;;1.90;;
63114;SDS011;49208;50.874;6.466;2024-02-21T14:35:59;4.60;;;1.73;;
63114;SDS011;49208;50.874;6.466;2024-02-21T14:38:25;6.15;;;1.50;;
63114;SDS011;49208;50.874;6.466;2024-02-21T14:40:50;10.63;;;2.08;;
63114;SDS011;49208;50.874;6.466;2024-02-21T14:43:15;4.85;;;1.80;;
63114;SDS011;49208;50.874;6.466;2024-02-21T14:45:42;8.38;;;2.20;;
63114;SDS011;49208;50.874;6.466;2024-02-21T14:48:08;5.82;;;2.10;;
63114;SDS011;49208;50.874;6.466;2024-02-21T14:50:34;4.35;;;1.80;;
63114;SDS011;49208;50.874;6.466;2024-02-21T14:52:59;6.75;;;2.53;;
63114;SDS011;49208;50.874;6.466;2024-02-21T14:55:24;4.53;;;1.80;;
63114;SDS011;49208;50.874;6.466;2024-02-21T14:57:50;5.03;;;1.67;;
63114;SDS011;49208;50.874;6.466;2024-02-21T15:00:15;8.65;;;2.65;;
63114;SDS011;49208;50.874;6.466;2024-02-21T15:02:41;9.35;;;3.75;;
63114;SDS011;49208;50.874;6.466;2024-02-21T15:05:07;7.18;;;2.88;;
63114;SDS011;49208;50.874;6.466;2024-02-21T15:07:33;10.68;;;2.97;;
63114;SDS011;49208;50.874;6.466;2024-02-21T15:09:59;6.18;;;2.08;;
63114;SDS011;49208;50.874;6.466;2024-02-21T15:12:24;5.28;;;2.28;;
63114;SDS011;49208;50.874;6.466;2024-02-21T15:14:50;4.18;;;1.85;;
63114;SDS011;49208;50.874;6.466;2024-02-21T15:17:16;8.68;;;2.55;;
63114;SDS011;49208;50.874;6.466;2024-02-21T15:19:42;6.43;;;2.47;;
63114;SDS011;49208;50.874;6.466;2024-02-21T15:22:09;6.70;;;2.72;;
63114;SDS011;49208;50.874;6.466;2024-02-21T15:24:38;4.57;;;2.03;;
63114;SDS011;49208;50.874;6.466;2024-02-21T15:27:04;6.38;;;2.67;;
63114;SDS011;49208;50.874;6.466;2024-02-21T15:29:29;6.82;;;2.60;;
63114;SDS011;49208;50.874;6.466;2024-02-21T15:31:55;7.13;;;2.80;;
63114;SDS011;49208;50.874;6.466;2024-02-21T15:34:21;7.32;;;2.53;;
63114;SDS011;49208;50.874;6.466;2024-02-21T15:36:47;6.00;;;2.42;;
63114;SDS011;49208;50.874;6.466;2024-02-21T15:39:13;7.15;;;2.58;;
63114;SDS011;49208;50.874;6.466;2024-02-21T15:41:38;7.18;;;2.85;;
63114;SDS011;49208;50.874;6.466;2024-02-21T15:44:04;8.73;;;2.60;;
63114;SDS011;49208;50.874;6.466;2024-02-21T15:46:29;6.88;;;2.38;;
63114;SDS011;49208;50.874;6.466;2024-02-21T15:49:02;4.88;;;2.38;;
63114;SDS011;49208;50.874;6.466;2024-02-21T15:51:28;6.10;;;2.63;;
63114;SDS011;49208;50.874;6.466;2024-02-21T15:53:55;8.55;;;3.97;;
63114;SDS011;49208;50.874;6.466;2024-02-21T15:56:21;10.02;;;3.42;;
63114;SDS011;49208;50.874;6.466;2024-02-21T15:58:48;7.75;;;3.65;;
63114;SDS011;49208;50.874;6.466;2024-02-21T16:01:14;7.75;;;3.00;;
63114;SDS011;49208;50.874;6.466;2024-02-21T16:03:40;6.38;;;2.38;;
63114;SDS011;49208;50.874;6.466;2024-02-21T16:06:05;7.25;;;2.75;;
63114;SDS011;49208;50.874;6.466;2024-02-21T16:08:31;7.38;;;2.50;;
63114;SDS011;49208;50.874;6.466;2024-02-21T16:10:57;10.13;;;3.50;;
63114;SDS011;49208;50.874;6.466;2024-02-21T16:13:24;7.18;;;2.35;;
63114;SDS011;49208;50.874;6.466;2024-02-21T16:15:50;5.60;;;2.33;;
63114;SDS011;49208;50.874;6.466;2024-02-21T16:18:15;4.90;;;2.08;;
63114;SDS011;49208;50.874;6.466;2024-02-21T16:20:45;6.72;;;1.92;;
63114;SDS011;49208;50.874;6.466;2024-02-21T16:23:12;4.93;;;2.33;;
63114;SDS011;49208;50.874;6.466;2024-02-21T16:25:39;8.27;;;2.30;;
63114;SDS011;49208;50.874;6.466;2024-02-21T16:28:05;4.40;;;1.90;;
63114;SDS011;49208;50.874;6.466;2024-02-21T16:32:58;5.60;;;1.85;;
63114;SDS011;49208;50.874;6.466;2024-02-21T16:35:23;7.15;;;2.55;;
63114;SDS011;49208;50.874;6.466;2024-02-21T16:37:52;6.75;;;2.30;;
63114;SDS011;49208;50.874;6.466;2024-02-21T16:40:18;3.92;;;2.00;;
63114;SDS011;49208;50.874;6.466;2024-02-21T16:42:44;8.70;;;2.58;;
63114;SDS011;49208;50.874;6.466;2024-02-21T16:45:09;8.65;;;2.75;;
63114;SDS011;49208;50.874;6.466;2024-02-21T16:47:34;6.60;;;2.70;;
63114;SDS011;49208;50.874;6.466;2024-02-21T16:50:01;6.32;;;2.42;;
63114;SDS011;49208;50.874;6.466;2024-02-21T16:52:26;5.32;;;2.90;;
63114;SDS011;49208;50.874;6.466;2024-02-21T16:54:51;6.70;;;2.65;;
63114;SDS011;49208;50.874;6.466;2024-02-21T16:57:17;6.07;;;2.55;;
63114;SDS011;49208;50.874;6.466;2024-02-21T16:59:42;7.15;;;2.83;;
63114;SDS011;49208;50.874;6.466;2024-02-21T17:02:08;11.18;;;3.03;;
63114;SDS011;49208;50.874;6.466;2024-02-21T17:04:33;6.93;;;2.67;;
63114;SDS011;49208;50.874;6.466;2024-02-21T17:06:58;5.35;;;2.33;;
63114;SDS011;49208;50.874;6.466;2024-02-21T17:09:24;7.60;;;2.42;;
63114;SDS011;49208;50.874;6.466;2024-02-21T17:11:49;6.18;;;2.70;;
63114;SDS011;49208;50.874;6.466;2024-02-21T17:14:16;5.35;;;2.40;;
63114;SDS011;49208;50.874;6.466;2024-02-21T17:16:42;5.88;;;2.22;;
63114;SDS011;49208;50.874;6.466;2024-02-21T17:19:07;5.35;;;2.47;;
63114;SDS011;49208;50.874;6.466;2024-02-21T17:21:33;6.05;;;2.40;;
63114;SDS011;49208;50.874;6.466;2024-02-21T17:23:59;8.82;;;3.25;;
63114;SDS011;49208;50.874;6.466;2024-02-21T17:26:24;5.45;;;2.45;;
63114;SDS011;49208;50.874;6.466;2024-02-21T17:28:51;8.65;;;2.50;;
63114;SDS011;49208;50.874;6.466;2024-02-21T17:31:17;6.00;;;2.90;;
63114;SDS011;49208;50.874;6.466;2024-02-21T17:33:42;7.00;;;2.75;;
63114;SDS011;49208;50.874;6.466;2024-02-21T17:36:08;6.93;;;2.45;;
63114;SDS011;49208;50.874;6.466;2024-02-21T17:38:33;7.85;;;2.97;;
63114;SDS011;49208;50.874;6.466;2024-02-21T17:40:59;5.88;;;2.85;;
63114;SDS011;49208;50.874;6.466;2024-02-21T17:43:24;7.60;;;2.53;;
63114;SDS011;49208;50.874;6.466;2024-02-21T17:45:51;8.02;;;2.75;;
63114;SDS011;49208;50.874;6.466;2024-02-21T17:48:20;6.57;;;2.30;;
63114;SDS011;49208;50.874;6.466;2024-02-21T17:50:46;6.55;;;2.55;;
63114;SDS011;49208;50.874;6.466;2024-02-21T17:53:11;6.80;;;2.83;;
63114;SDS011;49208;50.874;6.466;2024-02-21T17:55:37;8.68;;;2.88;;
63114;SDS011;49208;50.874;6.466;2024-02-21T17:58:03;7.68;;;3.13;;
63114;SDS011;49208;50.874;6.466;2024-02-21T18:00:28;7.35;;;2.83;;
63114;SDS011;49208;50.874;6.466;2024-02-21T18:02:57;5.43;;;2.60;;
63114;SDS011;49208;50.874;6.466;2024-02-21T18:05:23;5.63;;;2.30;;
63114;SDS011;49208;50.874;6.466;2024-02-21T18:07:49;5.95;;;2.90;;
63114;SDS011;49208;50.874;6.466;2024-02-21T18:10:15;9.13;;;2.83;;
63114;SDS011;49208;50.874;6.466;2024-02-21T18:12:40;6.88;;;2.72;;
63114;SDS011;49208;50.874;6.466;2024-02-21T18:15:06;7.88;;;3.65;;
63114;SDS011;49208;50.874;6.466;2024-02-21T18:17:33;7.40;;;2.70;;
63114;SDS011;49208;50.874;6.466;2024-02-21T18:20:00;7.38;;;2.72;;
63114;SDS011;49208;50.874;6.466;2024-02-21T18:22:28;5.97;;;2.55;;
63114;SDS011;49208;50.874;6.466;2024-02-21T18:24:53;8.52;;;3.17;;
63114;SDS011;49208;50.874;6.466;2024-02-21T18:27:19;5.40;;;2.88;;
63114;SDS011;49208;50.874;6.466;2024-02-21T18:29:44;7.35;;;2.63;;
63114;SDS011;49208;50.874;6.466;2024-02-21T18:32:09;5.25;;;2.63;;
63114;SDS011;49208;50.874;6.466;2024-02-21T18:34:35;4.80;;;2.10;;
63114;SDS011;49208;50.874;6.466;2024-02-21T18:37:02;5.45;;;2.33;;
63114;SDS011;49208;50.874;6.466;2024-02-21T18:39:27;8.13;;;3.05;;
63114;SDS011;49208;50.874;6.466;2024-02-21T18:41:53;7.75;;;2.83;;
63114;SDS011;49208;50.874;6.466;2024-02-21T18:44:18;7.47;;;3.08;;
63114;SDS011;49208;50.874;6.466;2024-02-21T18:46:44;6.30;;;2.60;;
63114;SDS011;49208;50.874;6.466;2024-02-21T18:49:09;7.05;;;2.28;;
63114;SDS011;49208;50.874;6.466;2024-02-21T18:51:35;7.22;;;2.45;;
63114;SDS011;49208;50.874;6.466;2024-02-21T18:54:00;5.25;;;2.72;;
63114;SDS011;49208;50.874;6.466;2024-02-21T18:56:28;10.07;;;3.00;;
63114;SDS011;49208;50.874;6.466;2024-02-21T18:58:59;7.43;;;2.67;;
63114;SDS011;49208;50.874;6.466;2024-02-21T19:01:24;5.38;;;2.72;;
63114;SDS011;49208;50.874;6.466;2024-02-21T19:03:50;5.13;;;2.50;;
63114;SDS011;49208;50.874;6.466;2024-02-21T19:06:15;4.93;;;2.35;;
63114;SDS011;49208;50.874;6.466;2024-02-21T19:08:41;6.43;;;2.25;;
63114;SDS011;49208;50.874;6.466;2024-02-21T19:11:07;4.60;;;2.58;;
63114;SDS011;49208;50.874;6.466;2024-02-21T19:13:32;6.45;;;2.30;;
63114;SDS011;49208;50.874;6.466;2024-02-21T19:15:58;5.30;;;2.50;;
63114;SDS011;49208;50.874;6.466;2024-02-21T19:18:23;7.65;;;2.33;;
63114;SDS011;49208;50.874;6.466;2024-02-21T19:20:49;8.00;;;1.98;;
63114;SDS011;49208;50.874;6.466;2024-02-21T19:23:14;5.07;;;2.38;;
63114;SDS011;49208;50.874;6.466;2024-02-21T19:25:39;6.93;;;2.50;;
63114;SDS011;49208;50.874;6.466;2024-02-21T19:30:33;7.72;;;2.10;;
63114;SDS011;49208;50.874;6.466;2024-02-21T19:32:59;3.40;;;2.25;;
63114;SDS011;49208;50.874;6.466;2024-02-21T19:35:24;5.00;;;2.15;;
63114;SDS011;49208;50.874;6.466;2024-02-21T19:37:50;6.05;;;2.30;;
63114;SDS011;49208;50.874;6.466;2024-02-21T19:40:15;4.78;;;2.42;;
63114;SDS011;49208;50.874;6.466;2024-02-21T19:42:42;4.35;;;2.30;;
63114;SDS011;49208;50.874;6.466;2024-02-21T19:45:08;5.93;;;2.08;;
63114;SDS011;49208;50.874;6.466;2024-02-21T19:47:33;6.18;;;2.60;;
63114;SDS011;49208;50.874;6.466;2024-02-21T19:50:00;5.35;;;2.00;;
63114;SDS011;49208;50.874;6.466;2024-02-21T19:52:26;4.45;;;2.42;;
63114;SDS011;49208;50.874;6.466;2024-02-21T19:54:51;4.10;;;1.90;;
63114;SDS011;49208;50.874;6.466;2024-02-21T19:57:19;5.00;;;1.90;;
63114;SDS011;49208;50.874;6.466;2024-02-21T19:59:46;6.03;;;2.38;;
63114;SDS011;49208;50.874;6.466;2024-02-21T20:02:12;5.10;;;1.90;;
63114;SDS011;49208;50.874;6.466;2024-02-21T20:04:38;3.72;;;1.65;;
63114;SDS011;49208;50.874;6.466;2024-02-21T20:07:03;2.85;;;1.55;;
63114;SDS011;49208;50.874;6.466;2024-02-21T20:09:28;5.70;;;2.30;;
63114;SDS011;49208;50.874;6.466;2024-02-21T20:11:54;2.33;;;1.08;;
63114;SDS011;49208;50.874;6.466;2024-02-21T20:14:19;4.05;;;1.50;;
63114;SDS011;49208;50.874;6.466;2024-02-21T20:16:45;3.92;;;1.70;;
63114;SDS011;49208;50.874;6.466;2024-02-21T20:19:12;3.33;;;1.35;;
63114;SDS011;49208;50.874;6.466;2024-02-21T20:21:39;2.97;;;1.30;;
63114;SDS011;49208;50.874;6.466;2024-02-21T20:24:07;4.35;;;1.60;;
63114;SDS011;49208;50.874;6.466;2024-02-21T20:26:32;2.92;;;1.48;;
63114;SDS011;49208;50.874;6.466;2024-02-21T20:28:58;3.53;;;1.50;;
63114;SDS011;49208;50.874;6.466;2024-02-21T20:31:23;3.97;;;1.48;;
63114;SDS011;49208;50.874;6.466;2024-02-21T20:33:50;3.85;;;1.67;;
63114;SDS011;49208;50.874;6.466;2024-02-21T20:36:17;2.83;;;1.57;;
63114;SDS011;49208;50.874;6.466;2024-02-21T20:38:42;2.70;;;1.30;;
63114;SDS011;49208;50.874;6.466;2024-02-21T20:41:17;2.85;;;1.30;;
63114;SDS011;49208;50.874;6.466;2024-02-21T20:43:44;2.90;;;1.33;;
63114;SDS011;49208;50.874;6.466;2024-02-21T20:46:10;2.80;;;0.80;;
63114;SDS011;49208;50.874;6.466;2024-02-21T20:48:37;2.10;;;1.08;;
63114;SDS011;49208;50.874;6.466;2024-02-21T20:51:02;2.63;;;1.00;;
63114;SDS011;49208;50.874;6.466;2024-02-21T20:53:27;1.95;;;0.88;;
63114;SDS011;49208;50.874;6.466;2024-02-21T20:55:53;2.00;;;0.80;;
63114;SDS011;49208;50.874;6.466;2024-02-21T20:58:19;3.20;;;1.10;;
63114;SDS011;49208;50.874;6.466;2024-02-21T21:00:44;1.77;;;0.90;;
63114;SDS011;49208;50.874;6.466;2024-02-21T21:03:10;1.52;;;0.63;;
63114;SDS011;49208;50.874;6.466;2024-02-21T21:05:35;2.17;;;0.80;;
63114;SDS011;49208;50.874;6.466;2024-02-21T21:08:01;3.10;;;0.60;;
63114;SDS011;49208;50.874;6.466;2024-02-21T21:10:27;1.50;;;0.90;;
63114;SDS011;49208;50.874;6.466;2024-02-21T21:12:53;1.77;;;0.75;;
63114;SDS011;49208;50.874;6.466;2024-02-21T21:15:18;0.63;;;0.40;;
63114;SDS011;49208;50.874;6.466;2024-02-21T21:17:43;0.93;;;0.40;;
63114;SDS011;49208;50.874;6.466;2024-02-21T21:20:09;1.20;;;0.65;;
63114;SDS011;49208;50.874;6.466;2024-02-21T21:22:37;0.65;;;0.40;;
63114;SDS011;49208;50.874;6.466;2024-02-21T21:25:04;0.82;;;0.40;;
63114;SDS011;49208;50.874;6.466;2024-02-21T21:27:30;1.25;;;0.50;;
63114;SDS011;49208;50.874;6.466;2024-02-21T21:29:56;0.90;;;0.47;;
63114;SDS011;49208;50.874;6.466;2024-02-21T21:32:21;1.00;;;0.50;;
63114;SDS011;49208;50.874;6.466;2024-02-21T21:34:47;1.35;;;0.50;;
63114;SDS011;49208;50.874;6.466;2024-02-21T21:37:12;2.20;;;0.55;;
63114;SDS011;49208;50.874;6.466;2024-02-21T21:39:37;0.63;;;0.30;;
63114;SDS011;49208;50.874;6.466;2024-02-21T21:42:04;1.90;;;0.55;;
63114;SDS011;49208;50.874;6.466;2024-02-21T21:44:30;1.48;;;0.50;;
63114;SDS011;49208;50.874;6.466;2024-02-21T21:46:56;0.63;;;0.30;;
63114;SDS011;49208;50.874;6.466;2024-02-21T21:49:21;1.17;;;0.45;;
63114;SDS011;49208;50.874;6.466;2024-02-21T21:51:47;0.45;;;0.28;;
63114;SDS011;49208;50.874;6.466;2024-02-21T21:54:12;1.15;;;0.30;;
63114;SDS011;49208;50.874;6.466;2024-02-21T21:56:38;2.33;;;0.52;;
63114;SDS011;49208;50.874;6.466;2024-02-21T21:59:03;1.00;;;0.45;;
63114;SDS011;49208;50.874;6.466;2024-02-21T22:01:29;0.77;;;0.45;;
63114;SDS011;49208;50.874;6.466;2024-02-21T22:03:54;0.28;;;0.20;;
63114;SDS011;49208;50.874;6.466;2024-02-21T22:06:20;1.10;;;0.50;;
63114;SDS011;49208;50.874;6.466;2024-02-21T22:08:45;0.25;;;0.25;;
63114;SDS011;49208;50.874;6.466;2024-02-21T22:11:10;0.35;;;0.22;;
63114;SDS011;49208;50.874;6.466;2024-02-21T22:16:04;1.13;;;0.47;;
63114;SDS011;49208;50.874;6.466;2024-02-21T22:18:30;0.73;;;0.60;;
63114;SDS011;49208;50.874;6.466;2024-02-21T22:20:57;0.28;;;0.20;;
63114;SDS011;49208;50.874;6.466;2024-02-21T22:23:23;0.75;;;0.20;;
63114;SDS011;49208;50.874;6.466;2024-02-21T22:25:48;0.22;;;0.20;;
63114;SDS011;49208;50.874;6.466;2024-02-21T22:28:15;0.60;;;0.30;;
63114;SDS011;49208;50.874;6.466;2024-02-21T22:30:42;0.63;;;0.30;;
63114;SDS011;49208;50.874;6.466;2024-02-21T22:33:07;0.63;;;0.30;;
63114;SDS011;49208;50.874;6.466;2024-02-21T22:35:34;0.30;;;0.30;;
63114;SDS011;49208;50.874;6.466;2024-02-21T22:37:59;1.02;;;0.38;;
63114;SDS011;49208;50.874;6.466;2024-02-21T22:40:25;0.30;;;0.20;;
63114;SDS011;49208;50.874;6.466;2024-02-21T22:42:50;0.45;;;0.25;;
63114;SDS011;49208;50.874;6.466;2024-02-21T22:45:16;0.38;;;0.30;;
63114;SDS011;49208;50.874;6.466;2024-02-21T22:47:42;0.60;;;0.30;;
63114;SDS011;49208;50.874;6.466;2024-02-21T22:50:08;0.68;;;0.13;;
63114;SDS011;49208;50.874;6.466;2024-02-21T22:52:34;0.65;;;0.28;;
63114;SDS011;49208;50.874;6.466;2024-02-21T22:54:59;0.88;;;0.40;;
63114;SDS011;49208;50.874;6.466;2024-02-21T22:57:25;1.65;;;0.28;;
63114;SDS011;49208;50.874;6.466;2024-02-21T22:59:50;1.17;;;0.30;;
